Time,TemperatureF,DewpointF,PressureIn,WindDirection,WindDirectionDegrees,WindSpeedMPH,WindSpeedGustMPH,Humidity,HourlyPrecipIn,Conditions,Clouds,dailyrainin,SoftwareType,DateUTC
2013-01-27 00:13:00,27.8,15.0,30.15,SSE,168,3.0,12.0,59,0.00,,,0.00,weatherlink.com 1.10,2013-01-27 06:13:00,
2013-01-27 00:28:00,27.6,15.0,30.15,SSE,159,4.0,15.0,60,0.00,,,0.00,weatherlink.com 1.10,2013-01-27 06:28:00,
2013-01-27 00:43:00,27.4,15.0,30.14,SE,128,3.0,11.0,60,0.00,,,0.00,weatherlink.com 1.10,2013-01-27 06:43:00,
2013-01-27 00:58:00,27.4,15.0,30.14,South,178,5.0,15.0,61,0.00,,,0.00,weatherlink.com 1.10,2013-01-27 06:58:00,
2013-01-27 01:13:00,27.1,15.0,30.14,South,186,1.0,9.0,61,0.00,,,0.00,weatherlink.com 1.10,2013-01-27 07:13:00,
2013-01-27 01:28:00,27.5,16.0,30.14,South,178,6.0,12.0,61,0.00,,,0.00,weatherlink.com 1.10,2013-01-27 07:28:00,
2013-01-27 01:43:00,27.7,16.0,30.13,South,173,5.0,12.0,61,0.00,,,0.00,weatherlink.com 1.10,2013-01-27 07:43:00,
2013-01-27 01:58:00,28.1,16.0,30.14,SSE,162,3.0,12.0,61,0.00,,,0.00,weatherlink.com 1.10,2013-01-27 07:58:00,
2013-01-27 02:13:00,28.1,16.0,30.13,SSE,163,2.0,7.0,61,0.00,,,0.00,weatherlink.com 1.10,2013-01-27 08:13:00,
2013-01-27 02:28:00,28.1,16.0,30.12,SE,140,4.0,9.0,61,0.00,,,0.00,weatherlink.com 1.10,2013-01-27 08:28:00,
2013-01-27 02:43:00,28.2,16.0,30.12,SE,128,3.0,7.0,61,0.00,,,0.00,weatherlink.com 1.10,2013-01-27 08:43:00,
2013-01-27 02:58:00,27.9,16.0,30.11,SSE,148,4.0,6.0,62,0.00,,,0.00,weatherlink.com 1.10,2013-01-27 08:58:00,
2013-01-27 03:13:00,28.2,16.0,30.11,SSE,151,4.0,8.0,61,0.00,,,0.00,weatherlink.com 1.10,2013-01-27 09:13:00,
2013-01-27 03:28:00,28.2,17.0,30.09,SSE,161,3.0,7.0,62,0.00,,,0.00,weatherlink.com 1.10,2013-01-27 09:28:00,
2013-01-27 03:43:00,28.2,17.0,30.09,SE,133,5.0,7.0,62,0.00,,,0.00,weatherlink.com 1.10,2013-01-27 09:43:00,
2013-01-27 03:58:00,28.3,17.0,30.08,South,189,1.0,8.0,62,0.00,,,0.00,weatherlink.com 1.10,2013-01-27 09:58:00,
2013-01-27 04:13:00,28.7,17.0,30.07,SSE,148,3.0,7.0,62,0.00,,,0.00,weatherlink.com 1.10,2013-01-27 10:13:00,
2013-01-27 04:28:00,28.9,17.0,30.07,South,180,2.0,7.0,62,0.00,,,0.00,weatherlink.com 1.10,2013-01-27 10:28:00,
2013-01-27 04:43:00,29.3,18.0,30.06,SSE,163,1.0,9.0,62,0.00,,,0.00,weatherlink.com 1.10,2013-01-27 10:43:00,
2013-01-27 04:58:00,29.4,18.0,30.06,SSE,163,2.0,7.0,63,0.00,,,0.00,weatherlink.com 1.10,2013-01-27 10:58:00,
2013-01-27 05:14:00,29.7,18.0,30.06,South,170,3.0,6.0,63,0.00,,,0.00,weatherlink.com 1.10,2013-01-27 11:14:00,
2013-01-27 05:28:00,30.2,18.0,30.06,SSE,151,3.0,9.0,62,0.00,,,0.00,weatherlink.com 1.10,2013-01-27 11:28:00,
2013-01-27 05:44:00,30.8,19.0,30.06,SSE,160,7.0,14.0,62,0.00,,,0.00,weatherlink.com 1.10,2013-01-27 11:44:00,
2013-01-27 05:58:00,31.5,19.0,30.05,South,175,5.0,12.0,60,0.00,,,0.00,weatherlink.com 1.10,2013-01-27 11:58:00,
2013-01-27 06:13:00,31.4,19.0,30.05,SSE,163,10.0,12.0,61,0.00,,,0.00,weatherlink.com 1.10,2013-01-27 12:13:00,
2013-01-27 06:28:00,31.2,20.0,30.04,South,179,4.0,13.0,63,0.00,,,0.00,weatherlink.com 1.10,2013-01-27 12:28:00,
2013-01-27 06:43:00,31.0,21.0,30.04,South,175,5.0,12.0,67,0.00,,,0.00,weatherlink.com 1.10,2013-01-27 12:43:00,
2013-01-27 06:59:00,30.6,24.0,30.03,South,190,7.0,15.0,77,0.00,,,0.00,weatherlink.com 1.10,2013-01-27 12:59:00,
2013-01-27 07:14:00,30.5,25.0,30.02,SSE,159,3.0,15.0,81,0.00,,,0.00,weatherlink.com 1.10,2013-01-27 13:14:00,
2013-01-27 07:29:00,30.6,26.0,30.01,SSE,161,2.0,12.0,84,0.00,,,0.00,weatherlink.com 1.10,2013-01-27 13:29:00,
2013-01-27 07:44:00,30.9,28.0,30.00,SSE,158,4.0,11.0,87,0.00,,,0.00,weatherlink.com 1.10,2013-01-27 13:44:00,
2013-01-27 07:59:00,31.1,28.0,30.00,SE,127,7.0,9.0,88,0.00,,,0.00,weatherlink.com 1.10,2013-01-27 13:59:00,
2013-01-27 08:14:00,31.1,28.0,30.00,SE,142,9.0,16.0,88,0.00,,,0.00,weatherlink.com 1.10,2013-01-27 14:14:00,
2013-01-27 08:29:00,31.0,28.0,29.99,West,259,4.0,9.0,89,0.00,,,0.00,weatherlink.com 1.10,2013-01-27 14:29:00,
2013-01-27 08:44:00,31.1,29.0,29.98,SSW,202,3.0,14.0,91,0.00,,,0.00,weatherlink.com 1.10,2013-01-27 14:44:00,
2013-01-27 08:59:00,31.4,29.0,29.97,SE,144,4.0,10.0,92,0.01,,,0.01,weatherlink.com 1.10,2013-01-27 14:59:00,
2013-01-27 09:14:00,31.5,30.0,29.97,South,191,6.0,13.0,92,0.01,,,0.01,weatherlink.com 1.10,2013-01-27 15:14:00,
2013-01-27 09:29:00,31.6,30.0,29.97,SSE,155,4.0,10.0,93,0.02,,,0.02,weatherlink.com 1.10,2013-01-27 15:29:00,
2013-01-27 09:44:00,31.8,30.0,29.96,ESE,113,4.0,11.0,93,0.03,,,0.03,weatherlink.com 1.10,2013-01-27 15:44:00,
2013-01-27 09:59:00,32.0,31.0,29.96,SSW,199,7.0,10.0,94,0.02,,,0.03,weatherlink.com 1.10,2013-01-27 15:59:00,
2013-01-27 10:14:00,32.2,31.0,29.95,SSE,167,6.0,8.0,94,0.04,,,0.05,weatherlink.com 1.10,2013-01-27 16:14:00,
2013-01-27 10:29:00,32.2,31.0,29.95,South,171,3.0,9.0,94,0.05,,,0.07,weatherlink.com 1.10,2013-01-27 16:29:00,
2013-01-27 10:44:00,32.3,31.0,29.94,SSW,207,7.0,10.0,94,0.08,,,0.11,weatherlink.com 1.10,2013-01-27 16:44:00,
2013-01-27 10:59:00,32.2,31.0,29.95,SE,146,7.0,10.0,94,0.09,,,0.12,weatherlink.com 1.10,2013-01-27 16:59:00,
2013-01-27 11:14:00,32.3,31.0,29.94,SSW,195,4.0,13.0,94,0.07,,,0.12,weatherlink.com 1.10,2013-01-27 17:14:00,
2013-01-27 11:29:00,32.3,31.0,29.94,South,191,6.0,13.0,94,0.05,,,0.12,weatherlink.com 1.10,2013-01-27 17:29:00,
2013-01-27 11:44:00,32.3,31.0,29.93,SSW,195,2.0,11.0,94,0.01,,,0.12,weatherlink.com 1.10,2013-01-27 17:44:00,
2013-01-27 11:59:00,32.3,31.0,29.91,SE,134,4.0,10.0,94,0.00,,,0.12,weatherlink.com 1.10,2013-01-27 17:59:00,
2013-01-27 12:14:00,32.3,31.0,29.90,SSE,162,2.0,7.0,94,0.00,,,0.12,weatherlink.com 1.10,2013-01-27 18:14:00,
2013-01-27 12:29:00,32.4,31.0,29.89,South,171,0.0,10.0,94,0.00,,,0.12,weatherlink.com 1.10,2013-01-27 18:29:00,
2013-01-27 12:44:00,32.4,31.0,29.89,SSW,211,5.0,8.0,94,0.01,,,0.13,weatherlink.com 1.10,2013-01-27 18:44:00,
2013-01-27 13:00:00,32.4,31.0,29.88,SW,222,4.0,7.0,94,0.01,,,0.13,weatherlink.com 1.10,2013-01-27 19:00:00,
2013-01-27 13:14:00,32.4,31.0,29.87,SSW,196,5.0,8.0,94,0.01,,,0.13,weatherlink.com 1.10,2013-01-27 19:14:00,
2013-01-27 13:30:00,32.4,31.0,29.86,South,171,1.0,7.0,95,0.01,,,0.13,weatherlink.com 1.10,2013-01-27 19:30:00,
2013-01-27 13:44:00,32.4,31.0,29.85,SSW,202,4.0,7.0,95,0.00,,,0.13,weatherlink.com 1.10,2013-01-27 19:44:00,
2013-01-27 13:59:00,32.5,31.0,29.84,East,84,0.0,3.0,95,0.00,,,0.13,weatherlink.com 1.10,2013-01-27 19:59:00,
2013-01-27 14:15:00,32.4,31.0,29.83,East,84,0.0,0.0,95,0.00,,,0.13,weatherlink.com 1.10,2013-01-27 20:15:00,
2013-01-27 14:30:00,32.4,31.0,29.83,East,84,0.0,0.0,95,0.00,,,0.13,weatherlink.com 1.10,2013-01-27 20:30:00,
2013-01-27 14:44:00,32.4,31.0,29.82,East,84,0.0,0.0,95,0.00,,,0.13,weatherlink.com 1.10,2013-01-27 20:44:00,
2013-01-27 15:00:00,32.4,31.0,29.82,East,84,0.0,0.0,95,0.00,,,0.13,weatherlink.com 1.10,2013-01-27 21:00:00,
2013-01-27 15:14:00,32.4,31.0,29.82,East,84,0.0,0.0,95,0.00,,,0.13,weatherlink.com 1.10,2013-01-27 21:14:00,
2013-01-27 15:29:00,32.5,31.0,29.83,East,84,0.0,0.0,95,0.00,,,0.13,weatherlink.com 1.10,2013-01-27 21:29:00,
2013-01-27 15:45:00,32.5,31.0,29.82,East,84,0.0,0.0,95,0.00,,,0.13,weatherlink.com 1.10,2013-01-27 21:45:00,
2013-01-27 16:00:00,32.5,31.0,29.82,East,84,0.0,0.0,95,0.00,,,0.13,weatherlink.com 1.10,2013-01-27 22:00:00,
2013-01-27 16:15:00,32.5,31.0,29.81,East,84,0.0,0.0,95,0.00,,,0.13,weatherlink.com 1.10,2013-01-27 22:15:00,
2013-01-27 16:30:00,32.5,31.0,29.81,East,84,0.0,0.0,95,0.00,,,0.13,weatherlink.com 1.10,2013-01-27 22:30:00,
2013-01-27 16:45:00,32.5,31.0,29.81,East,84,0.0,0.0,95,0.00,,,0.13,weatherlink.com 1.10,2013-01-27 22:45:00,
2013-01-27 17:00:00,32.5,31.0,29.81,East,84,0.0,0.0,95,0.00,,,0.13,weatherlink.com 1.10,2013-01-27 23:00:00,
2013-01-27 17:15:00,32.5,31.0,29.81,East,84,0.0,0.0,95,0.00,,,0.13,weatherlink.com 1.10,2013-01-27 23:15:00,
2013-01-27 17:30:00,32.5,32.0,29.81,East,84,0.0,0.0,96,0.00,,,0.13,weatherlink.com 1.10,2013-01-27 23:30:00,
2013-01-27 17:45:00,32.5,32.0,29.80,East,84,0.0,0.0,96,0.00,,,0.13,weatherlink.com 1.10,2013-01-27 23:45:00,
2013-01-27 18:00:00,32.5,32.0,29.80,East,84,0.0,0.0,96,0.00,,,0.13,weatherlink.com 1.10,2013-01-28 00:00:00,
2013-01-27 18:15:00,32.5,32.0,29.80,East,84,0.0,0.0,96,0.00,,,0.13,weatherlink.com 1.10,2013-01-28 00:15:00,
2013-01-27 18:30:00,32.5,32.0,29.80,East,84,0.0,0.0,96,0.00,,,0.13,weatherlink.com 1.10,2013-01-28 00:30:00,
2013-01-27 18:45:00,32.5,32.0,29.81,East,84,0.0,0.0,96,0.00,,,0.13,weatherlink.com 1.10,2013-01-28 00:45:00,
2013-01-27 19:00:00,32.6,32.0,29.81,East,84,0.0,0.0,96,0.00,,,0.13,weatherlink.com 1.10,2013-01-28 01:00:00,
2013-01-27 19:15:00,32.6,32.0,29.81,East,84,0.0,0.0,96,0.00,,,0.13,weatherlink.com 1.10,2013-01-28 01:15:00,
2013-01-27 19:30:00,32.6,32.0,29.81,East,84,0.0,0.0,96,0.00,,,0.13,weatherlink.com 1.10,2013-01-28 01:30:00,
2013-01-27 19:45:00,32.6,32.0,29.81,East,84,0.0,0.0,96,0.00,,,0.13,weatherlink.com 1.10,2013-01-28 01:45:00,
2013-01-27 20:00:00,32.6,32.0,29.80,East,84,0.0,0.0,96,0.00,,,0.13,weatherlink.com 1.10,2013-01-28 02:00:00,
2013-01-27 20:15:00,32.6,32.0,29.81,East,84,0.0,0.0,96,0.00,,,0.13,weatherlink.com 1.10,2013-01-28 02:15:00,
2013-01-27 20:30:00,32.6,32.0,29.81,East,84,0.0,0.0,96,0.00,,,0.13,weatherlink.com 1.10,2013-01-28 02:30:00,
2013-01-27 20:45:00,32.6,32.0,29.80,East,84,0.0,0.0,96,0.00,,,0.13,weatherlink.com 1.10,2013-01-28 02:45:00,
2013-01-27 21:00:00,32.6,32.0,29.80,East,84,0.0,0.0,96,0.00,,,0.13,weatherlink.com 1.10,2013-01-28 03:00:00,
2013-01-27 21:15:00,32.6,32.0,29.80,East,84,0.0,0.0,96,0.00,,,0.13,weatherlink.com 1.10,2013-01-28 03:15:00,
2013-01-27 21:30:00,32.6,32.0,29.80,East,84,0.0,0.0,96,0.00,,,0.13,weatherlink.com 1.10,2013-01-28 03:30:00,
2013-01-27 21:45:00,32.6,32.0,29.80,East,84,0.0,0.0,96,0.00,,,0.13,weatherlink.com 1.10,2013-01-28 03:45:00,
2013-01-27 22:00:00,32.7,32.0,29.80,East,84,0.0,0.0,96,0.00,,,0.13,weatherlink.com 1.10,2013-01-28 04:00:00,
2013-01-27 22:15:00,32.8,32.0,29.81,East,84,0.0,0.0,96,0.00,,,0.13,weatherlink.com 1.10,2013-01-28 04:15:00,
2013-01-27 22:30:00,32.8,32.0,29.81,East,84,0.0,0.0,96,0.00,,,0.13,weatherlink.com 1.10,2013-01-28 04:30:00,
2013-01-27 22:45:00,32.8,32.0,29.81,East,84,0.0,0.0,96,0.00,,,0.13,weatherlink.com 1.10,2013-01-28 04:45:00,
2013-01-27 23:15:00,32.7,32.0,29.81,East,84,0.0,0.0,96,0.00,,,0.13,weatherlink.com 1.10,2013-01-28 05:15:00,
2013-01-27 23:30:00,32.6,32.0,29.81,East,84,0.0,0.0,96,0.00,,,0.13,weatherlink.com 1.10,2013-01-28 05:30:00,
2013-01-27 23:45:00,32.6,32.0,29.81,East,84,0.0,0.0,96,0.00,,,0.13,weatherlink.com 1.10,2013-01-28 05:45:00,